• Join FlightAware (Why Join?)
  • Login
  • US Flag 
09:33PM EDT


 

Airport Tracker/Info


-or-


 

Live Flight TrackerFlight Track Log ✈ SWA378 ✈ 13-May-2013 ✈ KLAX - KATL

Flight Track Log - Related Links

Times and Time Zones

All times are in EDT time to prevent confusion due to time zone crossing. See the SWA378 flight status page for this flight to view local times or setup timezone preferences in your user account.

Time Position Orientation Groundspeed Altitude Reporting Facility
EDT Latitude Longitude Course Direction KTS MPH feet Rate Location/Type
01:29PM 33.8803 -118.5039 220° Southwest 238 274 3,000  Level Los Angeles Center
01:31PM 33.8014 -118.5131 186° South 276 318 5,400 2,760 Climbing Los Angeles Center
01:32PM 33.7250 -118.5183 183° South 280 322 8,800 2,700 Climbing Los Angeles Center
01:33PM 33.6753 -118.4511 132° Southeast 300 345 11,100 2,760 Climbing Los Angeles Center
01:34PM 33.6700 -118.4367 101° East  Level FlightAware Approximate
01:34PM 33.6425 -118.3294 108° East 328 377 14,600  Level Los Angeles Center
01:35PM 33.6444 -118.2114 89° East 364 419 16,300 1,980 Climbing Los Angeles Center
01:36PM 33.6447 -118.0861 90° East 378 435 18,800 2,160 Climbing Los Angeles Center
01:37PM 33.6442 -117.9547 90° East 393 452 20,900 2,340 Climbing Los Angeles Center
01:38PM 33.6431 -117.7933 90° East 403 464 23,700 2,160 Climbing Los Angeles Center
01:39PM 33.6433 -117.6547 90° East 414 476 25,400 1,620 Climbing Los Angeles Center
01:40PM 33.6419 -117.5125 91° East 426 490 27,100 1,500 Climbing Los Angeles Center
01:41PM 33.6411 -117.3692 90° East 432 497 28,600 1,440 Climbing Los Angeles Center
01:42PM 33.6400 -117.2225 90° East 440 506 30,100 1,440 Climbing Los Angeles Center
01:43PM 33.6400 -117.0761 90° East 442 509 31,600 1,560 Climbing Los Angeles Center
01:45PM 33.6364 -116.7647 91° East 431 496 35,000 1,500 Climbing Los Angeles Center
01:46PM 33.6347 -116.6239 91° East 423 487 36,400 960 Climbing Los Angeles Center
01:47PM 33.6331 -116.4850 91° East 417 480 37,000 240 Climbing Los Angeles Center
01:48PM 33.6311 -116.3442 91° East 420 483 37,000  Level Los Angeles Center
01:49PM 33.6283 -116.1769 91° East 417 480 37,000  Level Los Angeles Center
01:50PM 33.6442 -116.0408 82° East 413 475 37,000  Level Los Angeles Center
01:51PM 33.6633 -115.9042 80° East 413 475 37,000  Level Los Angeles Center
01:52PM 33.6828 -115.7683 80° East 412 474 37,000  Level Los Angeles Center
01:53PM 33.7025 -115.6322 80° East 414 476 37,000  Level Los Angeles Center
01:54PM 33.7192 -115.4956 82° East 414 476 37,000  Level Los Angeles Center
01:55PM 33.7417 -115.3336 80° East 411 473 37,000  Level Los Angeles Center
01:56PM 33.7606 -115.1986 80° East 412 474 37,000  Level Los Angeles Center
01:57PM 33.7775 -115.0650 81° East 408 470 37,000  Level Los Angeles Center
01:58PM 33.7958 -114.9314 81° East 409 471 37,000  Level Los Angeles Center
02:00PM 33.8136 -114.7972 81° East 409 471 37,000  Level Los Angeles Center
02:01PM 33.8311 -114.6650 81° East 404 465 37,000  Level Los Angeles Center
02:02PM 33.8531 -114.5072 80° East 401 461 37,000  Level Los Angeles Center
02:03PM 33.8689 -114.3758 82° East 399 459 37,000  Level Los Angeles Center
02:04PM 33.8881 -114.2306 81° East 399 459 37,000  Level Albuquerque Center
02:05PM 33.9056 -114.0983 81° East 401 461 37,000  Level Albuquerque Center
02:06PM 33.9214 -113.9669 82° East 399 459 37,000  Level Albuquerque Center
02:07PM 33.9381 -113.8358 81° East 398 458 37,000  Level Albuquerque Center
02:08PM 33.9561 -113.6772 82° East 399 459 37,000  Level Albuquerque Center
02:09PM 33.9733 -113.5453 81° East 399 459 37,000  Level Albuquerque Center
02:10PM 33.9889 -113.4133 82° East 399 459 37,000  Level Albuquerque Center
02:11PM 34.0036 -113.2828 82° East 397 457 37,000  Level Albuquerque Center
02:12PM 34.0197 -113.1508 82° East 396 456 37,000  Level Albuquerque Center
02:13PM 34.0344 -113.0206 82° East 395 455 37,000  Level Albuquerque Center
02:14PM 34.0497 -112.8900 82° East 393 452 37,000  Level Albuquerque Center
02:15PM 34.0678 -112.7342 82° East 391 450 37,000  Level Albuquerque Center
02:16PM 34.0822 -112.6036 82° East 393 452 37,000  Level Albuquerque Center
02:17PM 34.0969 -112.4750 82° East 389 448 37,000  Level Albuquerque Center
02:18PM 34.1119 -112.3444 82° East 391 450 37,000  Level Albuquerque Center
02:19PM 34.1267 -112.2142 82° East 391 450 37,000  Level Albuquerque Center
02:20PM 34.1406 -112.0825 83° East 393 452 37,000  Level Albuquerque Center
02:21PM 34.1558 -111.9447 82° East 392 451 37,000  Level Albuquerque Center
02:22PM 34.1703 -111.8153 82° East 391 450 37,000  Level Albuquerque Center
02:23PM 34.1836 -111.6825 83° East 394 453 37,000  Level Albuquerque Center
02:24PM 34.1972 -111.5533 83° East 394 453 37,000  Level Albuquerque Center
02:25PM 34.2131 -111.3969 83° East 391 450 37,000  Level Albuquerque Center
02:26PM 34.2272 -111.2669 82° East 390 449 37,000  Level Albuquerque Center
02:27PM 34.2394 -111.1369 83° East 390 449 37,000  Level Albuquerque Center
02:28PM 34.2528 -111.0069 83° East 389 448 37,000  Level Albuquerque Center
02:29PM 34.2661 -110.8775 83° East 389 448 37,000  Level Albuquerque Center
02:31PM 34.2783 -110.7486 83° East 388 447 37,000  Level Albuquerque Center
02:32PM 34.2914 -110.6183 83° East 389 448 37,000  Level Albuquerque Center
02:33PM 34.3044 -110.4875 83° East 390 449 37,000  Level Albuquerque Center
02:34PM 34.3172 -110.3422 84° East 391 450 37,000  Level Albuquerque Center
02:35PM 34.3314 -110.1956 83° East 394 453 37,000  Level Albuquerque Center
02:36PM 34.3428 -110.0714 84° East 390 449 37,000  Level Albuquerque Center
02:37PM 34.3558 -109.9233 84° East 394 453 37,000  Level Albuquerque Center
02:38PM 34.3675 -109.8003 83° East 390 449 37,000  Level Albuquerque Center
02:39PM 34.3797 -109.6525 84° East 392 451 37,000  Level Albuquerque Center
02:40PM 34.3914 -109.5294 83° East 389 448 37,000  Level Albuquerque Center
02:41PM 34.4019 -109.4056 84° East 387 445 37,000  Level Albuquerque Center
02:42PM 34.4153 -109.2614 84° East 387 445 37,000  Level Albuquerque Center
02:43PM 34.4256 -109.1369 84° East 388 447 37,000  Level Albuquerque Center
02:44PM 34.4531 -108.9958 77° East 388 447 37,000  Level Albuquerque Center
02:45PM 34.4747 -108.8725 78° East 389 448 37,000  Level Albuquerque Center
02:46PM 34.5011 -108.7292 77° East 389 448 37,000  Level Albuquerque Center
02:47PM 34.5233 -108.6064 78° East 390 449 37,000  Level Albuquerque Center
02:48PM 34.5464 -108.4767 78° East 393 452 37,000  Level Albuquerque Center
02:49PM 34.5694 -108.3478 78° East 392 451 37,000  Level Albuquerque Center
02:50PM 34.5925 -108.2189 78° East 391 450 37,000  Level Albuquerque Center
02:51PM 34.6167 -108.0903 77° East 390 449 37,000  Level Albuquerque Center
02:52PM 34.6381 -107.9614 79° East 391 450 37,000  Level Albuquerque Center
02:53PM 34.6647 -107.8078 78° East 389 448 37,000  Level Albuquerque Center
02:54PM 34.6878 -107.6783 78° East 391 450 37,000  Level Albuquerque Center
02:55PM 34.7094 -107.5497 78° East 391 450 37,000  Level Albuquerque Center
02:56PM 34.7306 -107.4208 79° East 389 448 37,000  Level Albuquerque Center
02:57PM 34.7531 -107.2925 78° East 389 448 37,000  Level Albuquerque Center
02:58PM 34.7747 -107.1628 78° East 393 452 37,000  Level Albuquerque Center
02:59PM 34.8003 -107.0072 79° East 394 453 37,000  Level Albuquerque Center
03:00PM 34.8214 -106.8783 79° East 395 455 37,000  Level Albuquerque Center
03:01PM 34.8433 -106.7386 79° East 396 456 37,000  Level Albuquerque Center
03:02PM 34.8661 -106.6086 78° East 382 440 37,000  Level Albuquerque Center
03:03PM 34.8844 -106.4922 79° East 397 457 37,000  Level Albuquerque Center
03:04PM 34.9053 -106.3619 79° East 396 456 37,000  Level Albuquerque Center
03:05PM 34.9300 -106.2067 79° East 392 451 37,000  Level Albuquerque Center
03:06PM 34.9500 -106.0769 79° East 392 451 37,000  Level Albuquerque Center
03:08PM 34.9717 -105.9464 79° East 392 451 37,000  Level Albuquerque Center
03:09PM 34.9922 -105.8058 80° East 390 449 37,000  Level Albuquerque Center
03:10PM 35.0133 -105.6747 79° East 390 449 37,000  Level Albuquerque Center
03:11PM 35.0342 -105.5444 79° East 389 448 37,000  Level Albuquerque Center
03:12PM 35.0547 -105.4125 79° East 391 450 37,000  Level Albuquerque Center
03:13PM 35.0744 -105.2814 80° East 391 450 37,000  Level Albuquerque Center
03:14PM 35.0944 -105.1494 79° East 390 449 37,000  Level Albuquerque Center
03:15PM 35.1136 -105.0161 80° East 393 452 37,000  Level Albuquerque Center
03:16PM 35.1206 -104.8606 87° East 391 450 37,000  Level Albuquerque Center
03:17PM 35.1269 -104.7256 87° East 393 452 37,000  Level Albuquerque Center
03:18PM 35.1333 -104.5900 87° East 396 456 37,000  Level Albuquerque Center
03:19PM 35.1411 -104.4600 86° East 397 457 37,000  Level Albuquerque Center
03:20PM 35.1464 -104.3256 87° East 397 457 37,000  Level Albuquerque Center
03:21PM 35.1517 -104.1911 87° East 397 457 37,000  Level Albuquerque Center
03:22PM 35.1592 -104.0561 86° East 399 459 37,000  Level Albuquerque Center
03:23PM 35.1642 -103.8942 88° East 402 463 37,000  Level Albuquerque Center
03:24PM 35.1703 -103.7575 87° East 402 463 37,000  Level Albuquerque Center
03:25PM 35.1764 -103.6214 87° East 400 460 37,000  Level Albuquerque Center
03:26PM 35.1811 -103.4850 88° East 399 459 37,000  Level Albuquerque Center
03:27PM 35.1861 -103.3481 87° East 400 460 37,000  Level Albuquerque Center
03:28PM 35.1914 -103.2111 87° East 400 460 37,000  Level Albuquerque Center
03:29PM 35.1958 -103.0750 88° East 399 459 37,000  Level Albuquerque Center
03:30PM 35.2003 -102.9172 88° East 401 461 37,000  Level Albuquerque Center
03:31PM 35.2053 -102.7825 87° East 399 459 37,000  Level Albuquerque Center
03:32PM 35.2086 -102.6469 88° East 400 460 37,000  Level Albuquerque Center
03:33PM 35.2128 -102.5108 88° East 401 461 37,000  Level Albuquerque Center
03:34PM 35.2167 -102.3761 88° East 398 458 37,000  Level Albuquerque Center
03:35PM 35.2208 -102.2408 88° East 399 459 37,000  Level Albuquerque Center
03:36PM 35.2250 -102.0783 88° East 400 460 37,000  Level Albuquerque Center
03:37PM 35.2292 -101.9572 88° East 401 461 37,000  Level Albuquerque Center
03:38PM 35.2339 -101.7983 88° East 398 458 37,000  Level Albuquerque Center
03:39PM 35.2375 -101.6606 88° East 401 461 37,000  Level Albuquerque Center
03:40PM 35.2453 -101.5344 86° East 403 464 37,000  Level Albuquerque Center
03:41PM 35.2506 -101.3969 87° East 404 465 37,000  Level Albuquerque Center
03:43PM 35.2564 -101.2461 87° East 406 467 37,000  Level Albuquerque Center
03:44PM 35.2622 -101.1103 87° East 403 464 37,000  Level Albuquerque Center
03:45PM 35.2678 -100.9731 87° East 404 465 37,000  Level Albuquerque Center
03:46PM 35.2739 -100.8361 87° East 404 465 37,000  Level Albuquerque Center
03:47PM 35.2803 -100.6719 87° East 404 465 37,000  Level Albuquerque Center
03:48PM 35.2850 -100.5469 87° East 402 463 37,000  Level Albuquerque Center
03:49PM 35.2903 -100.4092 87° East 404 465 37,000  Level Albuquerque Center
03:50PM 35.2944 -100.2711 88° East 405 466 37,000  Level Albuquerque Center
03:51PM 35.2994 -100.1333 87° East 405 466 37,000  Level Albuquerque Center
03:52PM 35.3039 -99.9678 88° East 406 467 37,000  Level Albuquerque Center
03:53PM 35.3089 -99.8303 87° East 405 466 37,000  Level Albuquerque Center
03:54PM 35.3131 -99.6922 88° East 406 467 37,000  Level Albuquerque Center
03:55PM 35.3181 -99.5547 87° East 406 467 37,000  Level Albuquerque Center
03:56PM 35.3217 -99.4150 88° East 410 472 37,000  Level Albuquerque Center
03:57PM 35.3258 -99.2775 88° East 407 468 37,000  Level Albuquerque Center
03:58PM 35.3294 -99.1097 88° East 411 473 37,000  Level Albuquerque Center
03:59PM 35.3333 -98.9728 88° East 407 468 37,000  Level Albuquerque Center
04:00PM 35.3367 -98.8347 88° East 408 470 37,000  Level Albuquerque Center
04:01PM 35.3392 -98.6911 89° East 401 461 37,000  Level Fort Worth Center
04:02PM 35.3383 -98.5511 90° East 401 461 37,000  Level Fort Worth Center
04:03PM 35.3397 -98.4164 89° East 401 461 37,000  Level Fort Worth Center
04:04PM 35.3386 -98.2789 91° East 401 461 37,000  Level Fort Worth Center
04:05PM 35.3372 -98.1389 91° East 401 461 37,000  Level Fort Worth Center
04:06PM 35.3361 -97.9989 91° East 407 468 37,000  Level Fort Worth Center
04:07PM 35.3344 -97.8589 91° East 407 468 37,000  Level Fort Worth Center
04:08PM 35.3328 -97.7214 91° East 401 461 37,000  Level Fort Worth Center
04:09PM 35.3311 -97.5661 91° East 401 461 37,000  Level Fort Worth Center
04:10PM 35.3333 -97.4339 89° East 418 481 37,000  Level Fort Worth Center
04:11PM 35.3289 -97.2967 92° East 418 481 37,000  Level Fort Worth Center
04:12PM 35.3247 -97.1389 92° East 418 481 37,000  Level Fort Worth Center
04:13PM 35.3222 -96.9989 91° East 418 481 37,000 240 Level Fort Worth Center
04:14PM 35.3194 -96.8589 91° East 413 475 37,500 840 Climbing Fort Worth Center
04:15PM 35.3189 -96.7189 90° East 413 475 38,700 720 Climbing Fort Worth Center
04:16PM 35.3158 -96.5792 91° East 413 475 39,000 120 Climbing Fort Worth Center
04:17PM 35.3128 -96.4342 91° East 413 475 39,000  Level Fort Worth Center
04:18PM 35.3094 -96.2942 92° East 413 475 39,000  Level Fort Worth Center
04:19PM 35.3061 -96.1492 92° East 419 482 39,000  Level Fort Worth Center
04:20PM 35.3025 -96.0044 92° East 419 482 39,000  Level Fort Worth Center
04:21PM 35.3008 -95.8669 91° East 419 482 39,000  Level Fort Worth Center
04:22PM 35.2989 -95.7219 91° East 419 482 39,000  Level Fort Worth Center
04:24PM 35.2878 -95.3833 92° East 410 472 39,000  Level Memphis Center
04:25PM 35.2833 -95.2331 92° East 420 483 39,000  Level Memphis Center
04:26PM 35.2806 -95.0881 91° East 426 490 39,000  Level Memphis Center
04:27PM 35.2756 -94.9428 92° East 426 490 39,000  Level Memphis Center
04:28PM 35.2706 -94.7950 92° East 426 490 39,000  Level Memphis Center
04:29PM 35.2642 -94.6828 94° East 426 490 39,000  Level Memphis Center
04:30PM 35.2614 -94.5197 91° East 426 490 39,000  Level Memphis Center
04:31PM 35.2536 -94.3744 94° East 426 490 39,000  Level Memphis Center
04:32PM 35.2519 -94.2294 91° East 426 490 39,000  Level Memphis Center
04:33PM 35.2439 -94.0817 94° East 426 490 39,000  Level Memphis Center
04:34PM 35.2378 -93.9339 93° East 426 490 39,000  Level Memphis Center
04:35PM 35.2333 -93.7914 92° East 426 490 39,000  Level Memphis Center
04:36PM 35.2269 -93.6436 93° East 426 490 39,000  Level Memphis Center
04:37PM 35.2203 -93.4961 93° East 431 496 39,000  Level Memphis Center
04:38PM 35.2158 -93.3408 92° East 431 496 39,000  Level Memphis Center
04:39PM 35.2089 -93.1881 93° East 424 488 39,000  Level Memphis Center
04:40PM 35.2019 -93.0381 93° East 429 494 39,000  Level Memphis Center
04:41PM 35.1944 -92.8981 94° East 434 499 39,000  Level Memphis Center
04:42PM 35.1869 -92.7428 93° East 434 499 39,000  Level Memphis Center
04:43PM 35.1775 -92.5850 94° East 451 519 39,000  Level Memphis Center
04:44PM 35.1675 -92.4350 95° East 451 519 39,000  Level Memphis Center
04:45PM 35.1614 -92.2850 93° East 446 513 39,000  Level Memphis Center
04:46PM 35.1533 -92.1347 94° East 446 513 39,000  Level Memphis Center
04:47PM 35.1450 -91.9822 94° East 446 513 39,000  Level Memphis Center
04:48PM 35.1364 -91.8297 94° East 446 513 39,000  Level Memphis Center
04:49PM 35.1278 -91.6797 94° East 446 513 39,000  Level Memphis Center
04:50PM 35.1189 -91.5250 94° East 446 513 39,000  Level Memphis Center
04:51PM 35.1117 -91.3700 93° East 446 513 39,000  Level Memphis Center
04:52PM 35.1003 -91.2175 95° East 446 513 39,000  Level Memphis Center
04:53PM 35.0931 -91.0625 93° East 451 519 39,000  Level Memphis Center
04:54PM 35.0814 -90.9078 95° East 457 526 39,000  Level Memphis Center
04:55PM 35.0714 -90.7528 94° East 462 532 39,000  Level Memphis Center
04:56PM 35.0614 -90.5981 94° East 462 532 39,000  Level Memphis Center
04:57PM 35.0492 -90.4408 95° East 462 532 39,000  Level Memphis Center
04:58PM 35.0386 -90.2886 95° East 462 532 39,000  Level Memphis Center
04:59PM 35.0300 -90.1492 94° East 462 532 39,000  Level Memphis Center
05:00PM 35.0194 -89.9944 95° East 462 532 39,000  Level Memphis Center
05:01PM 35.0019 -89.8375 98° East 462 532 39,000  Level Memphis Center
05:02PM 34.9761 -89.6575 100° East 472 543 39,000  Level Memphis Center
05:03PM 34.9481 -89.5058 103° East 479 551 39,000  Level Memphis Center
05:04PM 34.9239 -89.3542 101° East 466 536 39,000  Level Memphis Center
05:05PM 34.8997 -89.1975 101° East 466 536 39,000  Level Memphis Center
05:06PM 34.8753 -89.0433 101° East 471 542 39,000  Level Memphis Center
05:07PM 34.8506 -88.8869 101° East 471 542 39,000  Level Memphis Center
05:08PM 34.8300 -88.7481 100° East 466 536 39,000  Level Memphis Center
05:09PM 34.8050 -88.5917 101° East 471 542 39,000  Level Memphis Center
05:10PM 34.7817 -88.4431 101° East 461 531 39,000  Level Memphis Center
05:11PM 34.7583 -88.2842 100° East 466 536 39,000  Level Memphis Center
05:12PM 34.7325 -88.1233 101° East 474 545 39,000  Level Memphis Center
05:13PM 34.7047 -87.9647 102° East 474 545 39,000 -240 Level Memphis Center
05:14PM 34.6783 -87.7939 101° East 468 539 38,600 -1,440 Descending Memphis Center
05:15PM 34.6811 -87.8207 101° East  Level FlightAware Approximate
05:15PM 34.6519 -87.6381 102° East 468 539 36,200  Level Memphis Center
05:17PM 34.6167 -87.3956 100° East 465 535 33,000 -1,260 Descending Atlanta Center
05:18PM 34.5853 -87.2481 104° East 460 529 33,000  Level Atlanta Center
05:19PM 34.5556 -87.0981 103° East 455 524 33,000  Level Atlanta Center
05:20PM 34.5278 -86.9508 103° East 450 518 33,000  Level Atlanta Center
05:22PM 34.4700 -86.6517 103° East 450 518 33,000  Level Atlanta Center
05:23PM 34.4417 -86.4997 103° East 456 525 33,000 -180 Level Atlanta Center
05:24PM 34.4111 -86.3528 104° East 456 525 32,700 -1,260 Descending Atlanta Center
05:25PM 34.3825 -86.2033 103° East 456 525 30,600 -2,100 Descending Atlanta Center
05:26PM 34.3536 -86.0592 104° East 456 525 28,600 -1,980 Descending Atlanta Center
05:27PM 34.3267 -85.9178 103° East 450 518 26,700 -1,920 Descending Atlanta Center
05:28PM 34.3017 -85.7864 103° East 417 480 24,800 -1,860 Descending Atlanta Center
05:29PM 34.2722 -85.6525 105° East 406 467 23,000 -1,680 Descending Atlanta Center
05:30PM 34.2486 -85.5314 103° East 399 459 21,500 -1,680 Descending Atlanta Center
05:31PM 34.2208 -85.4006 104° East 399 459 19,700 -1,860 Descending Atlanta Center
05:32PM 34.1931 -85.2694 104° East 399 459 17,800 -1,920 Descending Atlanta Center
05:33PM 34.1672 -85.1383 103° East 394 453 16,000 -1,920 Descending Atlanta Center
05:34PM 34.0950 -85.0322 129° Southeast 399 459 14,000 -1,320 Descending Atlanta Center
05:35PM 34.0225 -84.9411 134° Southeast 385 443 13,400 -660 Descending Atlanta Center
05:36PM 33.9522 -84.8503 133° Southeast 374 430 12,700 -720 Descending Atlanta Center
05:37PM 33.8778 -84.7569 134° Southeast 379 436 12,000 -420 Descending Atlanta Center
05:38PM 33.8167 -84.6667 129° Southeast 345 397 12,000  Level Atlanta TRACON
05:39PM 33.7500 -84.6000 140° Southeast 292 336 12,000 -420 Level Atlanta TRACON
05:40PM 33.7333 -84.5167 104° East 281 323 11,300 -900 Descending Atlanta TRACON
05:41PM 33.7333 -84.4333 90° East 277 319 10,300 -960 Descending Atlanta TRACON
05:42PM 33.7333 -84.3500 90° East 265 305 9,400 -1,200 Descending Atlanta TRACON
05:43PM 33.7333 -84.2500 90° East 252 290 7,900 -1,560 Descending Atlanta TRACON
05:44PM 33.7167 -84.1833 107° East 246 283 6,200 -1,620 Descending Atlanta TRACON
05:45PM 33.6667 -84.1667 164° South 228 262 4,900 -1,260 Descending Atlanta TRACON
05:46PM 33.6500 -84.2167 248° West 179 206 3,900 -1,140 Descending Atlanta TRACON
05:47PM 33.6500 -84.2833 270° West 178 205 2,700 -900 Descending Atlanta TRACON
05:48PM 33.6500 -84.3333 270° West 160 184 2,100 -600 Descending Atlanta TRACON
05:49PM 33.6500 -84.3833 270° West 140 161 1,500 -660 Descending Atlanta TRACON
05:51PM 33.6333 -84.4167 265° West  Level FlightAware Approximate
05:58PM 33.6367 -84.4279 265° West  Level Estimated